sensor_id;sensor_type;location;lat;lon;timestamp;pressure;altitude;pressure_sealevel;temperature;humidity
33731;BME280;22931;48.636;9.000;2023-06-22T00:00:57;96095.31;;;24.27;56.29
33731;BME280;22931;48.636;9.000;2023-06-22T09:29:41;95951.72;;;28.45;55.34
33731;BME280;22931;48.636;9.000;2023-06-22T10:47:27;95882.34;;;30.27;51.23
33731;BME280;22931;48.636;9.000;2023-06-22T11:03:32;95878.97;;;30.41;51.40
33731;BME280;22931;48.636;9.000;2023-06-22T11:09:11;95886.28;;;30.50;50.80
33731;BME280;22931;48.636;9.000;2023-06-22T11:14:36;95880.44;;;30.42;50.96
33731;BME280;22931;48.636;9.000;2023-06-22T11:20:04;95877.41;;;30.49;50.85
33731;BME280;22931;48.636;9.000;2023-06-22T11:25:18;95871.00;;;30.52;50.74
33731;BME280;22931;48.636;9.000;2023-06-22T11:30:26;95853.13;;;30.60;50.83
33731;BME280;22931;48.636;9.000;2023-06-22T11:41:49;95855.63;;;30.88;51.10
33731;BME280;22931;48.636;9.000;2023-06-22T11:47:10;95873.81;;;30.96;50.50
33731;BME280;22931;48.636;9.000;2023-06-22T11:52:26;95890.72;;;31.00;50.72
33731;BME280;22931;48.636;9.000;2023-06-22T11:57:56;95896.25;;;31.06;50.40
33731;BME280;22931;48.636;9.000;2023-06-22T12:03:28;95886.50;;;30.99;50.45
33731;BME280;22931;48.636;9.000;2023-06-22T12:08:43;95869.63;;;30.95;50.70
33731;BME280;22931;48.636;9.000;2023-06-22T12:13:59;95855.44;;;30.91;50.59
33731;BME280;22931;48.636;9.000;2023-06-22T12:19:14;95908.94;;;30.85;50.10
33731;BME280;22931;48.636;9.000;2023-06-22T12:24:26;95911.09;;;30.81;50.36
33731;BME280;22931;48.636;9.000;2023-06-22T12:29:41;95891.03;;;30.79;50.13
33731;BME280;22931;48.636;9.000;2023-06-22T12:40:21;95915.00;;;30.65;51.04
33731;BME280;22931;48.636;9.000;2023-06-22T12:45:32;95937.94;;;30.64;50.75
33731;BME280;22931;48.636;9.000;2023-06-22T12:50:40;95936.91;;;30.62;50.60
33731;BME280;22931;48.636;9.000;2023-06-22T12:55:53;95921.34;;;30.62;50.91
33731;BME280;22931;48.636;9.000;2023-06-22T13:01:05;95892.97;;;30.63;49.82
33731;BME280;22931;48.636;9.000;2023-06-22T13:06:12;95875.66;;;30.76;50.03
33731;BME280;22931;48.636;9.000;2023-06-22T13:11:41;95866.34;;;30.53;50.67
33731;BME280;22931;48.636;9.000;2023-06-22T13:16:52;95872.00;;;30.40;51.54
33731;BME280;22931;48.636;9.000;2023-06-22T13:22:29;95860.50;;;30.45;51.14
33731;BME280;22931;48.636;9.000;2023-06-22T13:27:38;95867.34;;;30.41;50.85
33731;BME280;22931;48.636;9.000;2023-06-22T13:32:46;95861.72;;;30.44;51.32
33731;BME280;22931;48.636;9.000;2023-06-22T13:37:59;95862.28;;;30.48;51.86
33731;BME280;22931;48.636;9.000;2023-06-22T13:43:11;95858.53;;;30.46;51.63
33731;BME280;22931;48.636;9.000;2023-06-22T13:48:23;95837.84;;;30.48;51.74
33731;BME280;22931;48.636;9.000;2023-06-22T13:53:38;95818.84;;;30.48;51.22
33731;BME280;22931;48.636;9.000;2023-06-22T14:00:13;95818.28;;;30.59;51.88
33731;BME280;22931;48.636;9.000;2023-06-22T14:04:35;95809.69;;;30.75;51.80
33731;BME280;22931;48.636;9.000;2023-06-22T14:09:47;95809.34;;;30.97;51.17
33731;BME280;22931;48.636;9.000;2023-06-22T14:14:55;95805.09;;;31.10;50.72
33731;BME280;22931;48.636;9.000;2023-06-22T14:20:09;95792.16;;;31.20;50.19
33731;BME280;22931;48.636;9.000;2023-06-22T14:25:26;95819.53;;;31.31;49.62
33731;BME280;22931;48.636;9.000;2023-06-22T14:30:35;95805.81;;;31.40;48.72
33731;BME280;22931;48.636;9.000;2023-06-22T14:35:46;95814.25;;;31.57;47.29
33731;BME280;22931;48.636;9.000;2023-06-22T14:40:58;95817.22;;;31.73;46.02
33731;BME280;22931;48.636;9.000;2023-06-22T14:46:19;95814.38;;;31.82;45.15
33731;BME280;22931;48.636;9.000;2023-06-22T14:51:27;95806.53;;;31.90;44.08
33731;BME280;22931;48.636;9.000;2023-06-22T14:56:47;95799.66;;;31.94;43.77
33731;BME280;22931;48.636;9.000;2023-06-22T15:01:55;95790.22;;;31.90;43.15
33731;BME280;22931;48.636;9.000;2023-06-22T15:07:06;95780.53;;;31.89;43.76
33731;BME280;22931;48.636;9.000;2023-06-22T15:12:18;95780.81;;;31.91;42.43
33731;BME280;22931;48.636;9.000;2023-06-22T15:17:28;95779.06;;;31.88;42.65
33731;BME280;22931;48.636;9.000;2023-06-22T15:22:41;95771.06;;;31.84;42.59
33731;BME280;22931;48.636;9.000;2023-06-22T15:27:56;95778.22;;;31.82;42.27
33731;BME280;22931;48.636;9.000;2023-06-22T15:33:07;95783.81;;;31.73;41.85
33731;BME280;22931;48.636;9.000;2023-06-22T15:38:16;95786.72;;;31.69;42.05
33731;BME280;22931;48.636;9.000;2023-06-22T15:43:28;95770.13;;;31.67;41.08
33731;BME280;22931;48.636;9.000;2023-06-22T15:48:36;95777.16;;;31.59;42.11
33731;BME280;22931;48.636;9.000;2023-06-22T15:53:44;95781.53;;;31.51;41.55
33731;BME280;22931;48.636;9.000;2023-06-22T15:58:56;95777.50;;;31.47;41.68
33731;BME280;22931;48.636;9.000;2023-06-22T16:04:06;95789.88;;;31.33;41.75
33731;BME280;22931;48.636;9.000;2023-06-22T16:09:16;95782.78;;;31.21;42.52
33731;BME280;22931;48.636;9.000;2023-06-22T16:14:29;95790.28;;;31.11;41.64
33731;BME280;22931;48.636;9.000;2023-06-22T16:19:39;95761.44;;;30.99;41.74
33731;BME280;22931;48.636;9.000;2023-06-22T16:25:11;95740.53;;;30.91;42.42
33731;BME280;22931;48.636;9.000;2023-06-22T16:30:26;95715.75;;;30.89;42.01
33731;BME280;22931;48.636;9.000;2023-06-22T16:35:37;95689.72;;;30.82;42.16
33731;BME280;22931;48.636;9.000;2023-06-22T16:40:50;95688.13;;;30.76;41.96
33731;BME280;22931;48.636;9.000;2023-06-22T16:46:07;95699.94;;;30.73;41.63
33731;BME280;22931;48.636;9.000;2023-06-22T16:51:15;95717.19;;;30.69;41.53
33731;BME280;22931;48.636;9.000;2023-06-22T16:56:26;95729.56;;;30.70;41.66
33731;BME280;22931;48.636;9.000;2023-06-22T17:01:51;95738.25;;;30.75;41.33
33731;BME280;22931;48.636;9.000;2023-06-22T17:07:16;95760.09;;;30.65;41.48
33731;BME280;22931;48.636;9.000;2023-06-22T17:12:35;95768.81;;;30.55;40.51
33731;BME280;22931;48.636;9.000;2023-06-22T17:17:51;95765.25;;;30.49;40.60
33731;BME280;22931;48.636;9.000;2023-06-22T17:23:12;95777.88;;;30.37;40.44
33731;BME280;22931;48.636;9.000;2023-06-22T17:28:25;95775.84;;;30.23;40.26
33731;BME280;22931;48.636;9.000;2023-06-22T17:33:45;95791.94;;;30.12;40.00
33731;BME280;22931;48.636;9.000;2023-06-22T17:39:18;95784.84;;;29.91;40.18
33731;BME280;22931;48.636;9.000;2023-06-22T17:44:28;95806.91;;;29.75;40.94
33731;BME280;22931;48.636;9.000;2023-06-22T17:50:12;95796.00;;;29.60;40.73
33731;BME280;22931;48.636;9.000;2023-06-22T17:55:27;95808.94;;;29.32;40.86
33731;BME280;22931;48.636;9.000;2023-06-22T18:00:40;95814.09;;;29.12;40.72
33731;BME280;22931;48.636;9.000;2023-06-22T18:06:01;95830.69;;;28.96;41.23
33731;BME280;22931;48.636;9.000;2023-06-22T18:11:21;95840.38;;;28.79;41.12
33731;BME280;22931;48.636;9.000;2023-06-22T18:16:34;95852.13;;;28.67;41.65
33731;BME280;22931;48.636;9.000;2023-06-22T18:21:55;95834.66;;;28.50;43.18
33731;BME280;22931;48.636;9.000;2023-06-22T18:27:05;95775.41;;;28.16;42.86
33731;BME280;22931;48.636;9.000;2023-06-22T18:32:13;95769.94;;;27.79;43.70
33731;BME280;22931;48.636;9.000;2023-06-22T18:37:30;95788.19;;;27.48;44.42
33731;BME280;22931;48.636;9.000;2023-06-22T18:42:49;95776.34;;;27.15;44.66
33731;BME280;22931;48.636;9.000;2023-06-22T18:48:04;95780.00;;;26.99;44.92
33731;BME280;22931;48.636;9.000;2023-06-22T18:53:27;95756.69;;;26.83;45.13
33731;BME280;22931;48.636;9.000;2023-06-22T18:58:43;95775.13;;;26.63;45.33
33731;BME280;22931;48.636;9.000;2023-06-22T19:03:56;95804.47;;;26.52;46.06
33731;BME280;22931;48.636;9.000;2023-06-22T19:09:16;95805.78;;;26.48;46.26
33731;BME280;22931;48.636;9.000;2023-06-22T19:14:41;95816.31;;;26.33;46.49
33731;BME280;22931;48.636;9.000;2023-06-22T19:20:00;95825.72;;;26.29;46.29
33731;BME280;22931;48.636;9.000;2023-06-22T19:25:25;95836.75;;;26.21;46.62
33731;BME280;22931;48.636;9.000;2023-06-22T19:30:43;95844.00;;;26.12;46.84
33731;BME280;22931;48.636;9.000;2023-06-22T19:35:54;95826.72;;;26.09;46.67
33731;BME280;22931;48.636;9.000;2023-06-22T19:41:06;95842.59;;;26.07;46.81
33731;BME280;22931;48.636;9.000;2023-06-22T19:46:17;95861.25;;;26.02;47.33
33731;BME280;22931;48.636;9.000;2023-06-22T19:51:31;95869.03;;;26.00;47.79
33731;BME280;22931;48.636;9.000;2023-06-22T19:56:49;95891.16;;;25.95;47.34
33731;BME280;22931;48.636;9.000;2023-06-22T20:01:59;95898.00;;;25.87;47.73
33731;BME280;22931;48.636;9.000;2023-06-22T20:07:21;95904.25;;;25.84;48.00
33731;BME280;22931;48.636;9.000;2023-06-22T20:13:25;95927.44;;;25.81;47.70
